createdAt,value
2019-05-06T00:01:44.253Z,4.00
2019-05-06T00:04:14.529Z,4.20
2019-05-06T00:06:44.940Z,4.80
2019-05-06T00:09:16.124Z,4.80
2019-05-06T00:11:46.402Z,5.07
2019-05-06T00:14:18.015Z,5.10
2019-05-06T00:16:48.406Z,4.83
2019-05-06T00:19:18.583Z,5.20
2019-05-06T00:21:49.737Z,5.30
2019-05-06T00:24:23.863Z,4.93
2019-05-06T00:27:15.612Z,4.97
2019-05-06T00:29:46.842Z,5.30
2019-05-06T00:32:17.174Z,4.83
2019-05-06T00:34:47.282Z,5.07
2019-05-06T00:37:18.918Z,4.73
2019-05-06T00:40:14.755Z,4.47
2019-05-06T00:43:14.057Z,4.60
2019-05-06T00:45:44.571Z,4.43
2019-05-06T00:48:16.745Z,4.23
2019-05-06T00:50:47.078Z,4.70
2019-05-06T00:53:19.639Z,5.10
2019-05-06T00:55:51.027Z,4.73
2019-05-06T00:58:23.872Z,4.90
2019-05-06T01:00:54.298Z,4.80
2019-05-06T01:03:27.018Z,4.67
2019-05-06T01:05:57.601Z,4.40
2019-05-06T01:08:27.870Z,4.73
2019-05-06T01:10:58.067Z,4.20
2019-05-06T01:13:40.468Z,5.07
2019-05-06T01:16:12.745Z,4.60
2019-05-06T01:18:45.097Z,4.20
2019-05-06T01:21:16.850Z,4.73
2019-05-06T01:23:47.194Z,4.53
2019-05-06T01:26:17.601Z,4.03
2019-05-06T01:28:48.471Z,4.50
2019-05-06T01:31:19.874Z,4.80
2019-05-06T01:33:50.013Z,4.00
2019-05-06T01:36:20.215Z,4.53
2019-05-06T01:39:09.478Z,4.73
2019-05-06T01:42:01.690Z,4.30
2019-05-06T01:44:34.263Z,3.87
2019-05-06T01:47:04.398Z,4.57
2019-05-06T01:49:34.508Z,3.90
2019-05-06T01:52:05.903Z,4.07
2019-05-06T01:54:37.414Z,4.40
2019-05-06T01:57:07.829Z,4.33
2019-05-06T01:59:37.823Z,4.20
2019-05-06T02:02:09.064Z,4.63
2019-05-06T02:04:39.091Z,4.97
2019-05-06T02:07:09.885Z,4.37
2019-05-06T02:09:39.943Z,4.37
2019-05-06T02:12:10.121Z,4.10
2019-05-06T02:14:40.241Z,4.00
2019-05-06T02:17:10.962Z,4.00
2019-05-06T02:19:41.076Z,3.60
2019-05-06T02:22:25.987Z,4.07
2019-05-06T02:25:05.176Z,4.20
2019-05-06T02:27:35.546Z,4.00
2019-05-06T02:30:36.667Z,3.37
2019-05-06T02:33:15.351Z,3.40
2019-05-06T02:35:55.173Z,3.60
2019-05-06T02:38:35.575Z,4.20
2019-05-06T02:40:59.372Z,3.77
2019-05-06T02:43:29.781Z,3.43
2019-05-06T02:46:03.929Z,3.50
2019-05-06T02:48:54.433Z,3.40
2019-05-06T02:51:27.052Z,3.77
2019-05-06T02:53:57.408Z,3.93
2019-05-06T02:56:27.494Z,3.83
2019-05-06T02:58:58.882Z,3.40
2019-05-06T03:01:29.068Z,4.10
2019-05-06T03:03:59.198Z,3.50
2019-05-06T03:06:29.368Z,3.80
2019-05-06T03:08:59.713Z,3.50
2019-05-06T03:11:29.850Z,3.60
2019-05-06T03:14:03.021Z,3.70
2019-05-06T03:16:33.383Z,3.77
2019-05-06T03:19:04.289Z,3.57
2019-05-06T03:21:54.633Z,3.67
2019-05-06T03:24:43.681Z,3.67
2019-05-06T03:27:14.298Z,3.37
2019-05-06T03:29:44.952Z,3.50
2019-05-06T03:32:23.025Z,4.50
2019-05-06T03:35:07.719Z,4.67
2019-05-06T03:37:19.500Z,4.40
2019-05-06T03:39:52.634Z,4.70
2019-05-06T03:42:22.986Z,4.53
2019-05-06T03:44:57.131Z,4.83
2019-05-06T03:47:46.277Z,4.43
2019-05-06T03:50:16.568Z,4.40
2019-05-06T03:52:46.703Z,4.30
2019-05-06T03:55:17.086Z,3.90
2019-05-06T03:57:48.917Z,4.43
2019-05-06T04:00:19.364Z,4.43
2019-05-06T04:02:49.456Z,4.83
2019-05-06T04:05:19.833Z,4.50
2019-05-06T04:07:53.022Z,4.03
2019-05-06T04:10:23.190Z,5.30
2019-05-06T04:12:54.119Z,5.43
2019-05-06T04:15:27.134Z,4.63
2019-05-06T04:18:03.622Z,4.63
2019-05-06T04:20:43.784Z,4.20
2019-05-06T04:23:37.609Z,4.20
2019-05-06T04:26:13.418Z,4.37
2019-05-06T04:28:43.656Z,4.40
2019-05-06T04:31:13.829Z,6.03
2019-05-06T04:34:03.495Z,4.93
2019-05-06T04:36:17.567Z,4.90
2019-05-06T04:38:47.566Z,4.77
2019-05-06T04:41:17.899Z,4.23
2019-05-06T04:43:48.172Z,4.57
2019-05-06T04:46:18.505Z,4.50
2019-05-06T04:48:53.571Z,4.77
2019-05-06T04:51:24.929Z,4.43
2019-05-06T04:53:56.199Z,4.87
2019-05-06T04:56:26.873Z,5.07
2019-05-06T04:58:57.292Z,5.00
2019-05-06T05:01:27.694Z,5.20
2019-05-06T05:03:58.001Z,5.83
2019-05-06T05:06:28.264Z,5.13
2019-05-06T05:08:58.783Z,4.93
2019-05-06T05:11:37.749Z,4.70
2019-05-06T05:14:25.031Z,4.73
2019-05-06T05:17:02.183Z,4.60
2019-05-06T05:19:33.775Z,5.70
2019-05-06T05:22:07.181Z,4.83
2019-05-06T05:24:37.708Z,5.70
2019-05-06T05:27:07.943Z,5.63
2019-05-06T05:29:38.942Z,5.60
2019-05-06T05:32:08.966Z,5.57
2019-05-06T05:34:40.824Z,5.80
2019-05-06T05:37:12.119Z,5.60
2019-05-06T05:39:42.691Z,5.80
2019-05-06T05:42:22.411Z,6.53
2019-05-06T05:44:53.325Z,6.60
2019-05-06T05:47:24.415Z,6.23
2019-05-06T05:50:22.669Z,6.17
2019-05-06T05:52:52.709Z,6.17
2019-05-06T05:55:22.957Z,6.73
2019-05-06T05:57:53.546Z,6.93
2019-05-06T06:00:27.240Z,6.43
2019-05-06T06:02:57.771Z,6.23
2019-05-06T06:05:30.174Z,6.73
2019-05-06T06:08:02.892Z,5.27
2019-05-06T06:10:43.096Z,5.53
2019-05-06T06:13:13.557Z,5.63
2019-05-06T06:16:05.706Z,5.00
2019-05-06T06:18:52.489Z,4.70
2019-05-06T06:21:33.263Z,4.07
2019-05-06T06:24:08.498Z,3.90
2019-05-06T06:26:38.633Z,3.90
2019-05-06T06:29:09.031Z,4.03
2019-05-06T06:31:52.274Z,4.53
2019-05-06T06:34:28.175Z,4.57
2019-05-06T06:37:29.486Z,4.70
2019-05-06T06:40:02.581Z,4.33
2019-05-06T06:42:34.943Z,4.93
2019-05-06T06:45:05.960Z,4.47
2019-05-06T06:47:36.344Z,4.70
2019-05-06T06:50:07.158Z,4.63
2019-05-06T06:52:38.727Z,5.10
2019-05-06T06:55:08.847Z,5.43
2019-05-06T06:57:53.050Z,4.97
2019-05-06T07:00:33.561Z,4.83
2019-05-06T07:03:13.120Z,5.00
2019-05-06T07:05:48.546Z,5.30
2019-05-06T07:08:32.054Z,5.00
2019-05-06T07:10:55.235Z,4.33
2019-05-06T07:13:25.476Z,4.23
2019-05-06T07:15:56.241Z,4.60
2019-05-06T07:18:26.286Z,5.40
2019-05-06T07:21:06.231Z,5.67
2019-05-06T07:23:36.715Z,5.53
2019-05-06T07:26:06.670Z,5.63
2019-05-06T07:28:36.783Z,5.33
2019-05-06T07:31:20.736Z,4.97
2019-05-06T07:33:39.036Z,5.20
2019-05-06T07:36:13.726Z,4.93
2019-05-06T07:38:52.387Z,5.13
2019-05-06T07:41:28.052Z,5.27
2019-05-06T07:44:17.103Z,5.13
2019-05-06T07:46:55.516Z,5.73
2019-05-06T07:49:25.627Z,5.43
2019-05-06T07:51:56.189Z,5.77
2019-05-06T07:54:26.179Z,5.73
2019-05-06T07:56:56.738Z,5.50
2019-05-06T07:59:26.825Z,6.07
2019-05-06T08:01:57.750Z,5.20
2019-05-06T08:04:27.955Z,5.37
2019-05-06T08:06:58.800Z,5.63
2019-05-06T08:09:29.434Z,5.33
2019-05-06T08:12:02.803Z,5.10
2019-05-06T08:14:43.305Z,5.07
2019-05-06T08:17:23.110Z,5.10
2019-05-06T08:19:54.729Z,4.60
2019-05-06T08:23:02.435Z,4.60
2019-05-06T08:25:42.478Z,4.90
2019-05-06T08:28:13.421Z,5.00
2019-05-06T08:30:43.649Z,4.50
2019-05-06T08:33:15.585Z,5.03
2019-05-06T08:35:45.625Z,5.07
2019-05-06T08:38:16.035Z,4.70
2019-05-06T08:40:46.147Z,5.07
2019-05-06T08:43:16.638Z,4.77
2019-05-06T08:45:46.838Z,4.40
2019-05-06T08:48:16.984Z,4.77
2019-05-06T08:50:52.770Z,4.60
2019-05-06T08:53:42.439Z,4.80
2019-05-06T08:56:16.541Z,4.60
2019-05-06T08:58:47.371Z,4.47
2019-05-06T09:01:27.775Z,4.03
2019-05-06T09:04:08.895Z,4.50
2019-05-06T09:06:34.055Z,4.17
2019-05-06T09:09:02.560Z,4.10
2019-05-06T09:11:34.581Z,4.20
2019-05-06T09:14:09.668Z,3.97
2019-05-06T09:16:38.984Z,3.63
2019-05-06T09:19:12.847Z,4.17
2019-05-06T09:21:45.950Z,3.60
2019-05-06T09:24:15.133Z,3.63
2019-05-06T09:27:16.191Z,3.40
2019-05-06T09:29:52.174Z,3.80
2019-05-06T09:32:26.218Z,3.03
2019-05-06T09:35:02.841Z,2.90
2019-05-06T09:37:32.729Z,3.23
2019-05-06T09:40:03.102Z,4.30
2019-05-06T09:42:35.376Z,3.10
2019-05-06T09:45:06.123Z,3.07
2019-05-06T09:47:58.293Z,3.10
2019-05-06T09:50:46.013Z,2.73
2019-05-06T09:53:29.833Z,3.33
2019-05-06T09:56:28.082Z,2.70
2019-05-06T09:58:58.252Z,3.10
2019-05-06T10:01:29.812Z,2.43
2019-05-06T10:04:03.210Z,2.77
2019-05-06T10:06:33.138Z,2.77
2019-05-06T10:09:05.187Z,2.30
2019-05-06T10:11:35.619Z,5.47
2019-05-06T10:14:07.742Z,2.80
2019-05-06T10:16:39.394Z,2.30
2019-05-06T10:19:13.197Z,2.70
2019-05-06T10:21:45.550Z,2.80
2019-05-06T10:24:15.683Z,2.80
2019-05-06T10:26:52.352Z,2.60
2019-05-06T10:29:44.415Z,2.83
2019-05-06T10:32:38.147Z,3.27
2019-05-06T10:35:08.917Z,2.70
2019-05-06T10:37:52.682Z,3.00
2019-05-06T10:40:33.154Z,2.80
2019-05-06T10:43:17.262Z,2.90
2019-05-06T10:45:47.329Z,2.80
2019-05-06T10:48:18.792Z,2.60
2019-05-06T10:50:52.167Z,2.47
2019-05-06T10:53:24.167Z,2.53
2019-05-06T10:56:02.149Z,2.30
2019-05-06T10:58:32.726Z,2.90
2019-05-06T11:01:24.927Z,2.40
2019-05-06T11:03:55.081Z,2.43
2019-05-06T11:06:27.947Z,2.30
2019-05-06T11:08:58.354Z,2.30
2019-05-06T11:11:35.030Z,2.07
2019-05-06T11:14:02.900Z,4.93
2019-05-06T11:16:33.642Z,2.00
2019-05-06T11:19:05.197Z,2.60
2019-05-06T11:21:37.538Z,5.13
2019-05-06T11:24:07.979Z,2.90
2019-05-06T11:26:37.529Z,2.20
2019-05-06T11:29:12.455Z,2.10
2019-05-06T11:32:02.463Z,2.37
2019-05-06T11:34:44.815Z,2.53
2019-05-06T11:37:46.987Z,1.97
2019-05-06T11:40:16.456Z,2.10
2019-05-06T11:42:43.607Z,1.90
2019-05-06T11:45:14.914Z,2.37
2019-05-06T11:47:45.003Z,3.37
2019-05-06T11:50:15.146Z,2.30
2019-05-06T11:52:45.392Z,2.10
2019-05-06T11:55:27.893Z,2.70
2019-05-06T11:57:48.677Z,2.10
2019-05-06T12:00:23.905Z,2.23
2019-05-06T12:02:53.732Z,2.50
2019-05-06T12:05:23.779Z,2.00
2019-05-06T12:08:06.909Z,1.90
2019-05-06T12:10:26.376Z,5.07
2019-05-06T12:12:56.716Z,2.30
2019-05-06T12:15:26.936Z,2.50
2019-05-06T12:17:57.070Z,2.17
2019-05-06T12:20:29.479Z,2.23
2019-05-06T12:23:03.837Z,2.40
2019-05-06T12:25:32.441Z,2.60
2019-05-06T12:28:04.034Z,2.63
2019-05-06T12:30:35.852Z,2.20
2019-05-06T12:33:37.004Z,2.63
2019-05-06T12:36:14.842Z,2.50
2019-05-06T12:39:06.473Z,2.13
2019-05-06T12:41:43.117Z,2.90
2019-05-06T12:44:13.080Z,2.50
2019-05-06T12:46:53.279Z,2.40
2019-05-06T12:49:23.315Z,2.87
2019-05-06T12:51:53.843Z,2.80
2019-05-06T12:54:23.979Z,2.80
2019-05-06T12:56:58.406Z,2.93
2019-05-06T12:59:29.664Z,2.00
2019-05-06T13:02:02.828Z,2.00
2019-05-06T13:04:49.616Z,2.30
2019-05-06T13:07:09.425Z,2.47
2019-05-06T13:09:42.242Z,2.50
2019-05-06T13:12:12.449Z,2.40
2019-05-06T13:14:43.227Z,2.17
2019-05-06T13:17:19.995Z,2.63
2019-05-06T13:19:52.231Z,2.40
2019-05-06T13:22:33.999Z,2.47
2019-05-06T13:25:04.162Z,2.57
2019-05-06T13:27:34.876Z,2.43
2019-05-06T13:30:05.679Z,2.67
2019-05-06T13:32:38.369Z,2.50
2019-05-06T13:35:08.991Z,2.80
2019-05-06T13:37:42.295Z,2.73
2019-05-06T13:40:12.931Z,2.67
2019-05-06T13:42:55.786Z,3.17
2019-05-06T13:45:26.010Z,2.87
2019-05-06T13:48:14.545Z,2.97
2019-05-06T13:50:46.580Z,3.37
2019-05-06T13:53:18.841Z,3.10
2019-05-06T13:55:49.071Z,3.23
2019-05-06T13:58:21.280Z,3.10
2019-05-06T14:00:52.049Z,3.10
2019-05-06T14:03:22.295Z,2.80
2019-05-06T14:05:52.666Z,3.30
2019-05-06T14:08:25.148Z,3.27
2019-05-06T14:10:59.538Z,3.60
2019-05-06T14:13:27.690Z,3.50
2019-05-06T14:15:57.706Z,2.93
2019-05-06T14:18:28.000Z,3.13
2019-05-06T14:20:58.548Z,3.37
2019-05-06T14:23:28.822Z,3.00
2019-05-06T14:26:24.201Z,4.67
2019-05-06T14:29:02.325Z,2.97
2019-05-06T14:31:35.078Z,5.53
2019-05-06T14:34:07.305Z,4.50
2019-05-06T14:36:37.226Z,3.13
2019-05-06T14:39:15.313Z,3.50
2019-05-06T14:41:46.867Z,3.60
2019-05-06T14:44:16.967Z,3.10
2019-05-06T14:47:09.094Z,3.10
2019-05-06T14:49:39.192Z,3.30
2019-05-06T14:52:09.562Z,3.30
2019-05-06T14:54:53.834Z,2.80
2019-05-06T14:57:25.310Z,2.77
2019-05-06T14:59:56.432Z,2.60
2019-05-06T15:02:27.746Z,2.60
2019-05-06T15:04:59.738Z,3.10
2019-05-06T15:07:30.125Z,2.87
2019-05-06T15:10:16.379Z,2.77
2019-05-06T15:12:33.767Z,3.05
2019-05-06T15:15:04.632Z,2.80
2019-05-06T15:17:36.775Z,2.87
2019-05-06T15:20:07.335Z,3.10
2019-05-06T15:22:37.719Z,3.17
2019-05-06T15:25:12.794Z,2.70
2019-05-06T15:27:42.740Z,2.65
2019-05-06T15:30:20.267Z,3.45
2019-05-06T15:32:52.897Z,2.90
2019-05-06T15:35:42.847Z,3.87
2019-05-06T15:38:22.098Z,3.20
2019-05-06T15:40:52.761Z,5.50
2019-05-06T15:43:23.264Z,3.10
2019-05-06T15:45:54.352Z,2.80
2019-05-06T15:48:25.387Z,3.30
2019-05-06T15:50:55.544Z,3.15
2019-05-06T15:53:25.983Z,3.10
2019-05-06T15:55:55.482Z,2.70
2019-05-06T15:58:28.157Z,2.70
2019-05-06T16:01:02.931Z,3.23
2019-05-06T16:03:33.483Z,3.23
2019-05-06T16:06:05.087Z,2.80
2019-05-06T16:08:35.218Z,2.60
2019-05-06T16:11:05.413Z,2.60
2019-05-06T16:13:35.565Z,2.57
2019-05-06T16:16:07.008Z,2.60
2019-05-06T16:18:37.211Z,2.60
2019-05-06T16:21:07.933Z,2.60
2019-05-06T16:23:42.891Z,2.70
2019-05-06T16:26:12.924Z,2.77
2019-05-06T16:28:45.095Z,2.30
2019-05-06T16:31:15.490Z,9.57
2019-05-06T16:33:47.298Z,2.73
2019-05-06T16:36:17.618Z,2.87
2019-05-06T16:38:47.737Z,2.63
2019-05-06T16:41:17.825Z,2.70
2019-05-06T16:43:47.892Z,2.53
2019-05-06T16:46:18.031Z,2.80
2019-05-06T16:48:48.146Z,2.67
2019-05-06T16:51:18.364Z,3.00
2019-05-06T16:53:48.580Z,2.53
2019-05-06T16:56:25.111Z,3.53
2019-05-06T16:58:57.952Z,5.03
2019-05-06T17:01:28.435Z,2.73
2019-05-06T17:04:08.081Z,2.90
2019-05-06T17:06:38.847Z,2.37
2019-05-06T17:09:20.046Z,2.77
2019-05-06T17:11:42.902Z,2.33
2019-05-06T17:14:13.085Z,2.40
2019-05-06T17:16:44.026Z,2.47
2019-05-06T17:19:14.100Z,2.40
2019-05-06T17:21:44.251Z,2.47
2019-05-06T17:24:14.724Z,2.40
2019-05-06T17:26:44.880Z,2.20
2019-05-06T17:29:26.321Z,2.90
2019-05-06T17:32:24.320Z,2.60
2019-05-06T17:34:57.460Z,2.40
2019-05-06T17:37:46.098Z,2.73
2019-05-06T17:40:17.544Z,2.50
2019-05-06T17:42:47.703Z,2.40
2019-05-06T17:45:35.232Z,2.20
2019-05-06T17:48:13.392Z,5.07
2019-05-06T17:50:44.641Z,3.17
2019-05-06T17:53:15.018Z,3.10
2019-05-06T17:55:45.304Z,2.57
2019-05-06T17:58:15.967Z,2.83
2019-05-06T18:00:46.212Z,2.50
2019-05-06T18:03:17.138Z,2.17
2019-05-06T18:05:47.397Z,2.37
2019-05-06T18:08:17.488Z,2.17
2019-05-06T18:10:47.625Z,3.00
2019-05-06T18:13:17.937Z,2.30
2019-05-06T18:15:48.150Z,2.23
2019-05-06T18:18:17.751Z,2.40
2019-05-06T18:20:47.794Z,2.30
2019-05-06T18:23:19.531Z,2.50
2019-05-06T18:25:49.085Z,2.40
2019-05-06T18:28:19.248Z,2.37
2019-05-06T18:30:49.518Z,2.47
2019-05-06T18:33:19.938Z,2.50
2019-05-06T18:35:53.507Z,2.40
2019-05-06T18:38:22.877Z,2.10
2019-05-06T18:40:52.984Z,2.10
2019-05-06T18:43:23.179Z,2.23
2019-05-06T18:45:54.294Z,2.27
2019-05-06T18:48:28.472Z,2.20
2019-05-06T18:50:56.394Z,2.10
2019-05-06T18:53:27.517Z,2.37
2019-05-06T18:55:57.968Z,2.00
2019-05-06T18:58:28.272Z,1.90
2019-05-06T19:00:58.735Z,2.10
2019-05-06T19:03:32.465Z,2.07
2019-05-06T19:06:02.787Z,2.27
2019-05-06T19:08:44.411Z,2.10
2019-05-06T19:11:15.484Z,1.97
2019-05-06T19:13:46.878Z,2.30
2019-05-06T19:16:17.006Z,2.30
2019-05-06T19:18:47.360Z,2.23
2019-05-06T19:21:17.501Z,2.37
2019-05-06T19:23:48.162Z,2.03
2019-05-06T19:26:18.707Z,2.20
2019-05-06T19:28:48.980Z,1.90
2019-05-06T19:31:20.053Z,1.97
2019-05-06T19:33:52.613Z,1.93
2019-05-06T19:36:23.454Z,1.90
2019-05-06T19:38:56.018Z,2.10
2019-05-06T19:41:26.152Z,2.73
2019-05-06T19:43:56.402Z,2.13
2019-05-06T19:46:27.632Z,2.13
2019-05-06T19:49:01.814Z,2.03
2019-05-06T19:51:33.242Z,2.50
2019-05-06T19:54:03.385Z,2.30
2019-05-06T19:56:33.718Z,2.20
2019-05-06T19:59:04.427Z,2.33
2019-05-06T20:01:34.972Z,2.27
2019-05-06T20:04:05.192Z,2.53
2019-05-06T20:06:47.698Z,2.80
2019-05-06T20:09:35.957Z,3.00
2019-05-06T20:12:09.300Z,2.67
2019-05-06T20:14:41.745Z,2.03
2019-05-06T20:17:12.910Z,2.30
2019-05-06T20:19:43.940Z,2.27
2019-05-06T20:22:14.171Z,2.17
2019-05-06T20:24:44.383Z,2.37
2019-05-06T20:27:14.523Z,2.40
2019-05-06T20:29:44.574Z,2.10
2019-05-06T20:32:15.247Z,2.23
2019-05-06T20:34:45.438Z,2.03
2019-05-06T20:37:16.388Z,2.17
2019-05-06T20:39:46.899Z,2.30
2019-05-06T20:42:17.113Z,5.00
2019-05-06T20:44:47.180Z,5.87
2019-05-06T20:47:17.322Z,5.63
2019-05-06T20:49:47.631Z,4.43
2019-05-06T20:52:17.663Z,3.60
2019-05-06T20:54:48.655Z,2.97
2019-05-06T20:57:18.783Z,3.07
2019-05-06T20:59:49.071Z,3.00
2019-05-06T21:02:25.501Z,2.83
2019-05-06T21:04:52.742Z,2.70
2019-05-06T21:07:24.913Z,2.40
2019-05-06T21:09:55.444Z,2.30
2019-05-06T21:12:25.600Z,2.20
2019-05-06T21:14:56.014Z,2.30
2019-05-06T21:17:26.102Z,2.10
2019-05-06T21:19:56.545Z,2.10
2019-05-06T21:22:26.661Z,1.87
2019-05-06T21:24:56.810Z,2.13
2019-05-06T21:27:30.951Z,2.00
2019-05-06T21:30:02.509Z,2.23
2019-05-06T21:32:34.314Z,1.50
2019-05-06T21:35:05.394Z,1.90
2019-05-06T21:37:35.554Z,2.10
2019-05-06T21:40:05.954Z,2.10
2019-05-06T21:42:36.411Z,1.93
2019-05-06T21:45:06.622Z,2.00
2019-05-06T21:47:36.633Z,1.63
2019-05-06T21:50:07.362Z,1.93
2019-05-06T21:52:39.835Z,2.07
2019-05-06T21:55:09.370Z,2.07
2019-05-06T21:57:42.249Z,1.73
2019-05-06T22:00:16.942Z,1.80
2019-05-06T22:02:48.007Z,2.03
2019-05-06T22:05:18.368Z,2.00
2019-05-06T22:07:48.425Z,2.00
2019-05-06T22:10:18.747Z,2.40
2019-05-06T22:12:48.799Z,2.00
2019-05-06T22:15:18.931Z,3.07
2019-05-06T22:17:48.974Z,2.27
2019-05-06T22:20:19.099Z,2.60
2019-05-06T22:22:49.139Z,2.53
2019-05-06T22:25:19.321Z,2.20
2019-05-06T22:27:51.777Z,2.33
2019-05-06T22:30:23.721Z,2.30
2019-05-06T22:32:54.303Z,2.73
2019-05-06T22:35:24.388Z,3.40
2019-05-06T22:37:54.751Z,2.77
2019-05-06T22:40:24.824Z,2.87
2019-05-06T22:42:55.430Z,2.43
2019-05-06T22:45:25.523Z,2.73
2019-05-06T22:47:55.721Z,2.57
2019-05-06T22:50:25.846Z,2.90
2019-05-06T22:52:55.845Z,2.33
2019-05-06T22:55:26.230Z,2.70
2019-05-06T22:57:56.295Z,2.47
2019-05-06T23:00:27.206Z,2.77
2019-05-06T23:03:02.800Z,2.97
2019-05-06T23:05:34.227Z,2.47
2019-05-06T23:08:04.191Z,3.10
2019-05-06T23:10:34.605Z,7.13
2019-05-06T23:13:04.635Z,6.60
2019-05-06T23:15:35.017Z,3.50
2019-05-06T23:18:05.092Z,3.57
2019-05-06T23:20:35.893Z,2.77
2019-05-06T23:23:05.904Z,3.60
2019-05-06T23:25:37.627Z,2.83
2019-05-06T23:28:09.461Z,2.70
2019-05-06T23:30:38.926Z,2.50
2019-05-06T23:33:09.239Z,2.93
2019-05-06T23:35:39.359Z,3.27
2019-05-06T23:38:45.012Z,2.77
2019-05-06T23:41:52.812Z,3.80
2019-05-06T23:44:58.277Z,4.10
2019-05-06T23:48:03.722Z,3.20
2019-05-06T23:51:09.400Z,2.40
2019-05-06T23:54:14.615Z,2.70
2019-05-06T23:56:46.499Z,2.60
2019-05-06T23:59:17.484Z,2.70
